Time;durP1;ratioP1;P1;durP2;ratioP2;P2;SDS_P1;SDS_P2;PMS_P1;PMS_P2;Temp;Humidity;BMP_temperature;BMP_pressure;BME280_temperature;BME280_humidity;BME280_pressure;Samples;Min_cycle;Max_cycle;Signal;HPM_P1;HPM_P2
2022/09/25 00:00:14;;;;;;;5.73;1.73;;;10.20;99.10;;;;;;5070835;28;20044;-72
2022/09/25 00:02:40;;;;;;;5.43;1.20;;;10.20;99.00;;;;;;5032301;28;20044;-72
2022/09/25 00:05:06;;;;;;;9.17;1.17;;;10.10;99.00;;;;;;5052186;28;20050;-72
2022/09/25 00:07:32;;;;;;;4.93;1.30;;;10.10;99.10;;;;;;5077926;28;20097;-72
2022/09/25 00:09:57;;;;;;;5.60;0.90;;;10.10;99.40;;;;;;5029713;28;20462;-72
2022/09/25 00:12:23;;;;;;;6.70;1.00;;;10.00;99.60;;;;;;5047007;28;20040;-72
2022/09/25 00:14:50;;;;;;;6.23;1.00;;;9.90;99.40;;;;;;5063153;28;20037;-72
2022/09/25 00:17:16;;;;;;;7.37;0.97;;;9.90;99.20;;;;;;5076474;28;20476;-72
2022/09/25 00:19:51;;;;;;;4.23;0.97;;;9.80;99.40;;;;;;5049907;28;20276;-72
2022/09/25 00:22:21;;;;;;;5.57;1.15;;;9.70;99.60;;;;;;5051290;28;20049;-72
2022/09/25 00:24:47;;;;;;;6.85;0.93;;;9.60;99.70;;;;;;5053208;28;20060;-71
2022/09/25 00:27:14;;;;;;;5.03;1.02;;;9.50;99.80;;;;;;5059608;28;20466;-72
2022/09/25 00:29:40;;;;;;;3.60;0.80;;;9.50;99.90;;;;;;5033305;28;20047;-72
2022/09/25 00:32:07;;;;;;;12.07;1.23;;;9.40;99.90;;;;;;5050261;28;20491;-72
2022/09/25 00:34:33;;;;;;;6.05;1.27;;;9.40;99.90;;;;;;5048922;28;20256;-72
2022/09/25 00:36:59;;;;;;;5.73;0.80;;;9.40;99.90;;;;;;5066269;28;20032;-72
2022/09/25 00:39:25;;;;;;;7.27;1.17;;;9.40;99.90;;;;;;5062473;28;20029;-72
2022/09/25 00:41:51;;;;;;;5.60;0.90;;;9.30;99.90;;;;;;5038995;28;20386;-72
2022/09/25 00:44:55;;;;;;;4.57;0.70;;;9.30;99.90;;;;;;5031633;28;20531;-72
2022/09/25 00:47:32;;;;;;;8.07;0.93;;;9.30;99.90;;;;;;5066444;28;20048;-72
2022/09/25 00:50:01;;;;;;;5.38;0.77;;;9.30;99.90;;;;;;5066376;28;20084;-72
2022/09/25 00:52:28;;;;;;;5.22;0.95;;;9.20;99.90;;;;;;5065902;28;20044;-72
2022/09/25 00:55:02;;;;;;;4.05;1.08;;;9.10;99.90;;;;;;5066549;28;20592;-72
2022/09/25 00:57:32;;;;;;;8.20;1.10;;;9.00;99.90;;;;;;5046078;28;20046;-72
2022/09/25 01:00:07;;;;;;;8.27;1.10;;;8.90;99.90;;;;;;5066042;28;20036;-72
2022/09/25 01:02:37;;;;;;;5.47;1.20;;;8.90;99.90;;;;;;5050693;28;20113;-72
2022/09/25 01:05:08;;;;;;;3.75;0.93;;;8.80;99.90;;;;;;5064937;28;20044;-71
2022/09/25 01:07:39;;;;;;;8.65;1.42;;;8.80;99.90;;;;;;5049187;28;20047;-72
2022/09/25 01:10:06;;;;;;;5.45;0.90;;;8.80;99.90;;;;;;5068601;28;20147;-72
2022/09/25 01:12:39;;;;;;;10.15;1.13;;;8.80;99.90;;;;;;5043405;28;20544;-72
2022/09/25 01:15:13;;;;;;;10.43;1.10;;;8.70;99.90;;;;;;5037004;28;20296;-72
2022/09/25 01:17:51;;;;;;;5.40;1.40;;;8.70;99.90;;;;;;5054632;28;20040;-72
2022/09/25 01:20:38;;;;;;;4.00;1.00;;;8.60;99.90;;;;;;5059779;28;20130;-72
2022/09/25 01:23:28;;;;;;;6.20;0.90;;;8.60;99.90;;;;;;5068998;28;20052;-72
2022/09/25 01:26:00;;;;;;;4.57;1.40;;;8.50;99.90;;;;;;5068339;28;20070;-72
2022/09/25 01:29:06;;;;;;;4.15;0.90;;;8.40;99.90;;;;;;5065584;28;20254;-72
2022/09/25 01:31:47;;;;;;;6.78;1.20;;;8.40;99.90;;;;;;5044871;28;20129;-72
2022/09/25 01:34:23;;;;;;;4.40;0.75;;;8.40;99.90;;;;;;5064931;28;20445;-72
2022/09/25 01:37:02;;;;;;;4.22;0.90;;;8.40;99.90;;;;;;5065076;28;20042;-72
2022/09/25 01:39:38;;;;;;;5.88;1.05;;;8.30;99.90;;;;;;5049135;28;20031;-72
2022/09/25 01:42:13;;;;;;;8.02;1.00;;;8.40;99.90;;;;;;5066247;28;20157;-72
2022/09/25 01:44:45;;;;;;;5.80;1.00;;;8.40;99.90;;;;;;5061385;28;20119;-72
2022/09/25 01:47:24;;;;;;;5.20;1.73;;;8.50;99.90;;;;;;5048330;28;20534;-72
2022/09/25 01:49:55;;;;;;;4.88;1.02;;;8.60;99.90;;;;;;5064362;28;20055;-72
2022/09/25 01:52:26;;;;;;;9.38;1.95;;;8.70;99.90;;;;;;5065244;28;20537;-72
2022/09/25 01:54:57;;;;;;;7.32;1.08;;;8.80;99.90;;;;;;5064339;28;20044;-72
2022/09/25 01:57:30;;;;;;;9.43;1.00;;;8.90;99.90;;;;;;5065338;28;20408;-72
2022/09/25 01:59:56;;;;;;;4.85;0.85;;;8.90;99.90;;;;;;5063007;28;20079;-72
2022/09/25 02:02:32;;;;;;;2.60;0.70;;;9.00;99.90;;;;;;5064257;28;20123;-72
2022/09/25 02:05:16;;;;;;;4.05;0.80;;;8.90;99.90;;;;;;5065265;28;20046;-72
2022/09/25 02:07:53;;;;;;;2.90;0.75;;;8.90;99.90;;;;;;5057012;28;20389;-72
2022/09/25 02:10:33;;;;;;;7.40;0.88;;;8.90;99.90;;;;;;5047763;28;20080;-72
2022/09/25 02:13:09;;;;;;;6.38;0.90;;;8.90;99.90;;;;;;5064635;28;20560;-72
2022/09/25 02:15:50;;;;;;;6.97;0.90;;;8.90;99.90;;;;;;5064217;28;20400;-72
2022/09/25 02:21:27;;;;;;;4.57;1.20;;;8.80;99.90;;;;;;5064390;28;20076;-72
2022/09/25 02:24:09;;;;;;;4.53;1.08;;;8.80;99.90;;;;;;5069794;28;20450;-72
2022/09/25 02:26:37;;;;;;;3.72;1.10;;;8.70;99.90;;;;;;5077473;28;20054;-72
2022/09/25 02:29:04;;;;;;;5.00;1.33;;;8.60;99.90;;;;;;5077973;28;20048;-72
2022/09/25 02:31:52;;;;;;;8.15;1.15;;;8.60;99.90;;;;;;5064382;28;20047;-72
2022/09/25 02:34:19;;;;;;;6.22;1.10;;;8.50;99.90;;;;;;5061298;28;20167;-72
2022/09/25 02:36:45;;;;;;;5.38;0.90;;;8.40;99.90;;;;;;5063855;28;20040;-72
2022/09/25 02:39:14;;;;;;;3.90;0.93;;;8.40;99.90;;;;;;5049064;28;20040;-72
2022/09/25 02:41:56;;;;;;;5.28;1.10;;;8.30;99.90;;;;;;5032333;28;20271;-72
2022/09/25 02:44:42;;;;;;;5.63;1.20;;;8.20;99.90;;;;;;5075493;28;20036;-72
2022/09/25 02:47:20;;;;;;;6.70;1.30;;;8.10;99.90;;;;;;5041092;28;20044;-72
2022/09/25 02:50:11;;;;;;;7.82;1.00;;;8.10;99.90;;;;;;5065317;28;20454;-72
2022/09/25 02:52:45;;;;;;;3.83;0.98;;;8.10;99.90;;;;;;5047598;28;20451;-72
2022/09/25 02:55:49;;;;;;;4.05;1.10;;;8.10;99.90;;;;;;5046870;28;20086;-72
2022/09/25 02:58:20;;;;;;;3.92;1.05;;;8.00;99.90;;;;;;5064621;28;20170;-72
2022/09/25 03:00:51;;;;;;;9.20;1.50;;;7.90;99.90;;;;;;5052877;28;20037;-72
2022/09/25 03:03:18;;;;;;;4.32;1.27;;;7.90;99.90;;;;;;5049968;28;20102;-72
2022/09/25 03:05:46;;;;;;;7.55;1.00;;;7.90;99.90;;;;;;5084706;28;20051;-72
2022/09/25 03:10:58;;;;;;;10.10;2.20;;;8.10;99.90;;;;;;5078411;28;20180;-72
2022/09/25 03:13:30;;;;;;;8.13;2.03;;;8.30;99.90;;;;;;5067916;28;20047;-72
2022/09/25 03:16:05;;;;;;;8.25;2.10;;;8.50;99.90;;;;;;5057687;28;20101;-72
2022/09/25 03:18:31;;;;;;;11.30;1.90;;;8.70;99.90;;;;;;5050976;28;20117;-72
2022/09/25 03:20:57;;;;;;;11.90;1.67;;;8.90;99.90;;;;;;5051320;28;20036;-72
2022/09/25 03:23:23;;;;;;;6.85;1.33;;;9.00;99.90;;;;;;5057346;28;20048;-72
2022/09/25 03:25:51;;;;;;;5.60;1.27;;;9.20;99.90;;;;;;5074514;28;20110;-72
2022/09/25 03:28:17;;;;;;;4.93;1.23;;;9.20;99.90;;;;;;5052119;28;20561;-72
2022/09/25 03:30:43;;;;;;;3.60;0.73;;;9.30;99.90;;;;;;5034817;28;20131;-72
2022/09/25 03:33:12;;;;;;;5.07;0.80;;;9.40;99.90;;;;;;5067791;28;20056;-72
2022/09/25 03:35:38;;;;;;;3.35;0.88;;;9.50;99.90;;;;;;5050198;28;20041;-72
2022/09/25 03:38:05;;;;;;;2.95;0.50;;;9.50;99.90;;;;;;5067957;28;20052;-72
2022/09/25 03:40:30;;;;;;;2.13;0.40;;;9.50;99.90;;;;;;5050865;28;20067;-72
2022/09/25 03:42:56;;;;;;;2.37;0.30;;;9.60;99.90;;;;;;5067476;28;20045;-72
2022/09/25 03:45:22;;;;;;;2.90;0.37;;;9.60;99.90;;;;;;5051058;28;20055;-72
2022/09/25 03:47:47;;;;;;;2.90;0.50;;;9.60;99.90;;;;;;5064406;28;20056;-72
2022/09/25 03:50:13;;;;;;;4.03;0.70;;;9.60;99.90;;;;;;5064021;28;20380;-72
2022/09/25 03:52:39;;;;;;;3.20;0.60;;;9.60;99.90;;;;;;5066857;28;20037;-72
2022/09/25 03:55:05;;;;;;;3.42;0.30;;;9.60;99.90;;;;;;5047534;28;20583;-72
2022/09/25 03:57:31;;;;;;;4.23;0.83;;;9.60;99.90;;;;;;5050697;28;20036;-72
2022/09/25 04:00:01;;;;;;;2.80;0.60;;;9.60;99.90;;;;;;5067538;28;20037;-72
2022/09/25 04:02:28;;;;;;;2.55;0.50;;;9.60;99.90;;;;;;5067810;28;20155;-72
2022/09/25 04:04:54;;;;;;;2.15;0.47;;;9.60;99.90;;;;;;5017525;28;20044;-72
2022/09/25 04:07:21;;;;;;;1.13;0.70;;;9.60;99.90;;;;;;5031178;28;20048;-73
2022/09/25 04:09:47;;;;;;;2.50;0.43;;;9.60;99.90;;;;;;5051302;28;20052;-72
2022/09/25 04:12:13;;;;;;;1.57;0.30;;;9.60;99.90;;;;;;5067640;28;20049;-72
2022/09/25 04:14:40;;;;;;;2.65;0.40;;;9.60;99.90;;;;;;5032839;28;20033;-73
2022/09/25 04:17:06;;;;;;;3.50;0.50;;;9.70;99.90;;;;;;5066675;28;20113;-73
2022/09/25 04:19:32;;;;;;;4.93;0.57;;;9.60;99.90;;;;;;5050332;28;20037;-73
2022/09/25 04:21:58;;;;;;;1.95;0.40;;;9.70;99.90;;;;;;5031809;28;20142;-73
2022/09/25 04:27:09;;;;;;;4.88;0.82;;;9.70;99.90;;;;;;5066906;28;20055;-73
2022/09/25 04:29:36;;;;;;;2.20;0.55;;;9.70;99.90;;;;;;5084206;28;20400;-73
2022/09/25 04:34:46;;;;;;;2.28;0.40;;;9.70;99.90;;;;;;5061134;28;20063;-72
2022/09/25 04:37:12;;;;;;;1.60;0.53;;;9.70;99.90;;;;;;5076085;28;20135;-72
2022/09/25 04:39:39;;;;;;;2.67;0.77;;;9.70;99.90;;;;;;5047100;28;20510;-72
2022/09/25 04:42:04;;;;;;;5.72;0.73;;;9.70;99.90;;;;;;5060000;28;20045;-72
2022/09/25 04:44:30;;;;;;;3.47;1.10;;;9.80;99.90;;;;;;5052811;28;20483;-72
2022/09/25 04:46:56;;;;;;;3.63;0.50;;;9.80;99.90;;;;;;5064009;28;20036;-72
2022/09/25 04:49:22;;;;;;;4.93;1.30;;;9.80;99.90;;;;;;5064504;28;20044;-72
2022/09/25 04:51:47;;;;;;;1.70;0.80;;;9.90;99.90;;;;;;5046164;28;20044;-72
2022/09/25 04:54:15;;;;;;;5.37;0.90;;;9.90;99.90;;;;;;5032571;28;20041;-72
2022/09/25 04:56:42;;;;;;;3.65;0.70;;;9.90;99.90;;;;;;5065746;28;20037;-72
2022/09/25 04:59:10;;;;;;;4.65;0.93;;;9.90;99.90;;;;;;5030459;28;20048;-72
2022/09/25 05:01:36;;;;;;;3.25;0.85;;;10.00;99.90;;;;;;5060538;28;20044;-72
2022/09/25 05:04:02;;;;;;;3.20;0.77;;;10.00;99.90;;;;;;5065112;28;20463;-72
2022/09/25 05:06:28;;;;;;;2.97;0.80;;;10.00;99.90;;;;;;5029480;28;20045;-73
2022/09/25 05:08:56;;;;;;;6.20;0.63;;;10.00;99.90;;;;;;5038211;28;20078;-73
2022/09/25 05:11:22;;;;;;;5.57;1.05;;;10.10;99.90;;;;;;5090208;28;20738;-73
2022/09/25 05:13:51;;;;;;;4.15;0.88;;;10.10;99.90;;;;;;5048442;28;20063;-73
2022/09/25 05:16:18;;;;;;;6.07;0.90;;;10.10;99.90;;;;;;5062044;28;20512;-73
2022/09/25 05:18:44;;;;;;;5.30;0.85;;;10.10;99.90;;;;;;5054003;28;20041;-73
2022/09/25 05:21:09;;;;;;;2.43;0.77;;;10.10;99.90;;;;;;5065789;28;20048;-72
2022/09/25 05:23:35;;;;;;;2.60;0.90;;;10.10;99.90;;;;;;5065272;28;20287;-72
2022/09/25 05:26:01;;;;;;;1.53;0.40;;;10.10;99.90;;;;;;5065042;28;20084;-72
2022/09/25 05:28:28;;;;;;;2.67;0.60;;;10.10;99.90;;;;;;5077282;28;20045;-72
2022/09/25 05:30:54;;;;;;;1.40;0.55;;;10.00;99.90;;;;;;5078652;28;20154;-72
2022/09/25 05:33:20;;;;;;;3.10;0.60;;;10.00;99.90;;;;;;5074205;28;20078;-72
2022/09/25 05:35:47;;;;;;;6.07;0.90;;;10.00;99.90;;;;;;5057623;28;20486;-72
2022/09/25 05:38:13;;;;;;;2.85;0.50;;;10.00;99.90;;;;;;5049551;28;20086;-72
2022/09/25 05:40:39;;;;;;;2.63;0.50;;;9.90;99.90;;;;;;5048185;28;20124;-72
2022/09/25 05:43:05;;;;;;;2.53;0.60;;;9.90;99.90;;;;;;5049144;28;20283;-72
2022/09/25 05:45:33;;;;;;;2.43;0.83;;;9.80;99.90;;;;;;5045469;28;20072;-72
2022/09/25 05:48:01;;;;;;;4.57;0.70;;;9.70;99.90;;;;;;5038549;28;20519;-72
2022/09/25 05:50:27;;;;;;;6.47;0.70;;;9.70;99.90;;;;;;5048433;28;20048;-72
2022/09/25 05:53:00;;;;;;;3.73;0.53;;;9.50;99.90;;;;;;5046311;28;20056;-72
2022/09/25 05:55:27;;;;;;;3.10;0.65;;;9.50;99.90;;;;;;5083013;28;20282;-72
2022/09/25 05:57:52;;;;;;;3.38;0.50;;;9.40;99.90;;;;;;5049261;28;20238;-72
2022/09/25 06:00:19;;;;;;;6.17;0.83;;;9.30;99.90;;;;;;5065938;28;20068;-72
2022/09/25 06:02:44;;;;;;;5.20;0.70;;;9.20;99.90;;;;;;5066386;28;20385;-72
2022/09/25 06:05:10;;;;;;;3.03;0.70;;;9.10;99.90;;;;;;5064217;28;20252;-72
2022/09/25 06:07:36;;;;;;;5.17;0.93;;;9.10;99.90;;;;;;5065166;28;20044;-72
2022/09/25 06:10:02;;;;;;;7.07;0.90;;;9.00;99.90;;;;;;5066044;28;21472;-72
2022/09/25 06:12:28;;;;;;;5.00;1.15;;;8.90;99.90;;;;;;5032802;28;20511;-72
2022/09/25 06:14:54;;;;;;;2.35;0.80;;;8.90;99.90;;;;;;5081327;28;20588;-71
2022/09/25 06:17:20;;;;;;;3.90;1.20;;;8.80;99.90;;;;;;5054952;28;20123;-72
2022/09/25 06:19:46;;;;;;;3.03;0.80;;;8.80;99.90;;;;;;5058653;28;20140;-72
2022/09/25 06:22:12;;;;;;;2.67;1.07;;;8.80;99.90;;;;;;5082856;28;20516;-72
2022/09/25 06:24:38;;;;;;;3.72;1.25;;;8.70;99.90;;;;;;5049542;28;20053;-72
2022/09/25 06:27:05;;;;;;;2.83;1.40;;;8.70;99.90;;;;;;5020303;28;20048;-71
2022/09/25 06:29:31;;;;;;;2.00;0.85;;;8.60;99.90;;;;;;5046761;28;20178;-71
2022/09/25 06:31:57;;;;;;;2.93;1.27;;;8.60;99.90;;;;;;5032338;28;20531;-71
2022/09/25 06:34:23;;;;;;;7.07;1.47;;;8.60;99.90;;;;;;5048251;28;20558;-72
2022/09/25 06:36:48;;;;;;;5.83;1.30;;;8.60;99.90;;;;;;5069642;28;20139;-72
2022/09/25 06:39:14;;;;;;;4.40;1.50;;;8.50;99.90;;;;;;5039181;28;20044;-72
2022/09/25 06:41:40;;;;;;;4.60;1.90;;;8.50;99.90;;;;;;5037293;28;20112;-71
2022/09/25 06:44:07;;;;;;;5.10;1.90;;;8.50;99.90;;;;;;5054039;28;20048;-71
2022/09/25 06:46:35;;;;;;;4.68;2.05;;;8.50;99.90;;;;;;5051292;28;20076;-71
2022/09/25 06:49:00;;;;;;;6.05;2.28;;;8.60;99.90;;;;;;5067560;28;20085;-71
2022/09/25 06:51:28;;;;;;;6.97;2.50;;;8.60;99.90;;;;;;5051206;28;20083;-71
2022/09/25 06:53:54;;;;;;;8.68;2.53;;;8.60;99.90;;;;;;5047030;28;20107;-73
2022/09/25 06:56:20;;;;;;;5.87;2.53;;;8.70;99.90;;;;;;5055592;28;20070;-72
2022/09/25 06:58:46;;;;;;;4.97;2.20;;;8.80;99.90;;;;;;5055763;28;20032;-72
2022/09/25 07:01:12;;;;;;;4.03;2.13;;;8.90;99.90;;;;;;5072085;28;20365;-71
2022/09/25 07:03:44;;;;;;;4.45;2.40;;;8.90;99.90;;;;;;5035159;28;20730;-73
2022/09/25 07:06:15;;;;;;;4.53;2.40;;;9.00;99.90;;;;;;5069158;28;20037;-72
2022/09/25 07:08:42;;;;;;;8.38;2.15;;;9.10;99.90;;;;;;5055259;28;20133;-72
2022/09/25 07:11:13;;;;;;;5.25;2.13;;;9.20;99.90;;;;;;5053630;28;20512;-72
2022/09/25 07:13:40;;;;;;;5.57;1.90;;;9.30;99.90;;;;;;5053725;28;20572;-72
2022/09/25 07:16:11;;;;;;;4.82;1.80;;;9.40;99.90;;;;;;5050158;28;20054;-72
2022/09/25 07:18:37;;;;;;;4.97;2.38;;;9.60;99.90;;;;;;5054791;28;20041;-72
2022/09/25 07:21:09;;;;;;;5.78;2.40;;;9.70;99.90;;;;;;5068952;28;20362;-72
2022/09/25 07:23:35;;;;;;;3.42;1.23;;;9.80;99.90;;;;;;5066911;28;20044;-72
2022/09/25 07:26:21;;;;;;;3.47;1.73;;;9.80;99.90;;;;;;5053689;28;20057;-72
2022/09/25 07:29:00;;;;;;;7.30;1.58;;;9.90;99.90;;;;;;5075117;28;20056;-72
2022/09/25 07:31:28;;;;;;;4.18;1.70;;;9.90;99.90;;;;;;5059297;28;20133;-72
2022/09/25 07:33:54;;;;;;;5.93;1.63;;;10.00;99.90;;;;;;5054083;28;20071;-72
2022/09/25 07:36:21;;;;;;;10.93;2.22;;;10.10;99.90;;;;;;5072904;28;20450;-73
2022/09/25 07:38:50;;;;;;;4.05;1.27;;;10.30;99.90;;;;;;5055033;28;20036;-72
2022/09/25 07:41:18;;;;;;;5.57;1.80;;;10.50;99.90;;;;;;5079611;28;20040;-72
2022/09/25 07:43:44;;;;;;;5.57;1.40;;;10.60;99.90;;;;;;5071794;28;20500;-72
2022/09/25 07:46:11;;;;;;;6.60;1.40;;;10.70;99.90;;;;;;5062091;28;20116;-72
2022/09/25 07:48:37;;;;;;;4.13;1.07;;;10.90;99.90;;;;;;5068840;28;20045;-72
2022/09/25 07:51:10;;;;;;;3.17;1.17;;;11.00;99.90;;;;;;5044739;28;20778;-72
2022/09/25 07:53:37;;;;;;;3.50;1.20;;;11.10;99.90;;;;;;5051075;28;20314;-71
2022/09/25 07:56:03;;;;;;;4.10;0.93;;;11.20;99.90;;;;;;5067487;28;20279;-72
2022/09/25 07:58:29;;;;;;;4.17;1.10;;;11.30;99.90;;;;;;5053548;28;20290;-73
2022/09/25 08:00:59;;;;;;;5.47;1.10;;;11.40;99.90;;;;;;5067582;28;20296;-72
2022/09/25 08:03:25;;;;;;;3.93;1.00;;;11.50;99.90;;;;;;5069108;28;20532;-72
2022/09/25 08:06:20;;;;;;;7.50;1.37;;;11.60;99.90;;;;;;5063046;28;20306;-72
2022/09/25 08:08:46;;;;;;;6.72;1.70;;;11.80;99.90;;;;;;5036200;28;20287;-72
2022/09/25 08:11:14;;;;;;;4.00;1.17;;;11.90;99.90;;;;;;5064567;28;20051;-72
2022/09/25 08:13:41;;;;;;;5.23;0.93;;;12.10;99.90;;;;;;5060857;28;20072;-71
2022/09/25 08:16:15;;;;;;;3.63;0.83;;;12.20;99.90;;;;;;5047895;28;20931;-72
2022/09/25 08:18:44;;;;;;;5.15;1.10;;;12.40;99.90;;;;;;5048922;28;20362;-73
2022/09/25 08:21:13;;;;;;;2.73;0.80;;;12.70;99.90;;;;;;5065703;28;20044;-72
2022/09/25 08:23:39;;;;;;;6.87;0.90;;;13.00;99.90;;;;;;5030360;28;20322;-72
2022/09/25 08:26:06;;;;;;;4.00;1.00;;;13.30;98.60;;;;;;5064574;28;20659;-72
2022/09/25 08:28:33;;;;;;;4.13;0.90;;;13.60;95.60;;;;;;5042978;28;20691;-72
2022/09/25 08:30:59;;;;;;;5.23;0.97;;;13.90;96.30;;;;;;5045810;28;20279;-72
2022/09/25 08:33:25;;;;;;;4.03;0.70;;;14.00;95.70;;;;;;5042230;28;20356;-72
2022/09/25 08:36:01;;;;;;;4.07;0.40;;;14.10;94.00;;;;;;5044734;28;20837;-72
2022/09/25 08:38:27;;;;;;;4.63;0.70;;;14.10;94.10;;;;;;5058380;28;20119;-72
2022/09/25 08:40:58;;;;;;;5.17;1.07;;;14.00;93.10;;;;;;5046991;28;20352;-72
2022/09/25 08:43:25;;;;;;;7.93;1.27;;;14.00;93.90;;;;;;5066362;28;20639;-71
2022/09/25 08:49:03;;;;;;;3.37;0.30;;;13.90;91.50;;;;;;5063442;28;20758;-71
2022/09/25 08:51:40;;;;;;;5.30;0.57;;;13.80;91.60;;;;;;5057584;28;20283;-72
2022/09/25 08:54:11;;;;;;;4.60;0.67;;;13.80;91.30;;;;;;5061716;28;20338;-72
2022/09/25 08:56:39;;;;;;;1.60;0.40;;;13.70;91.80;;;;;;5062140;28;20295;-71
2022/09/25 08:59:22;;;;;;;2.97;0.40;;;13.70;91.80;;;;;;5063504;28;20282;-71
2022/09/25 09:02:01;;;;;;;2.60;0.43;;;13.60;91.40;;;;;;5047558;28;20318;-71
2022/09/25 09:04:34;;;;;;;3.73;0.40;;;13.60;91.40;;;;;;5053342;28;20397;-72
2022/09/25 09:07:09;;;;;;;3.90;0.50;;;13.70;91.70;;;;;;5059280;28;20698;-72
2022/09/25 09:09:49;;;;;;;5.50;0.60;;;13.80;90.90;;;;;;5044819;28;20783;-72
2022/09/25 09:12:46;;;;;;;4.07;0.50;;;14.00;90.30;;;;;;5057362;28;20107;-71
2022/09/25 09:15:35;;;;;;;2.43;0.50;;;14.10;89.40;;;;;;5059444;28;20826;-71
2022/09/25 09:18:28;;;;;;;2.43;0.37;;;14.20;88.40;;;;;;5058546;28;20275;-71
2022/09/25 09:21:02;;;;;;;2.80;0.30;;;14.30;88.70;;;;;;5031459;28;20765;-71
2022/09/25 09:23:52;;;;;;;2.63;0.43;;;14.40;88.00;;;;;;5061731;28;20293;-71
2022/09/25 09:26:35;;;;;;;3.70;0.97;;;14.60;87.40;;;;;;5046342;28;20294;-71
2022/09/25 09:29:28;;;;;;;4.40;0.30;;;14.70;87.30;;;;;;5040435;28;20640;-71
2022/09/25 09:32:22;;;;;;;1.93;0.20;;;14.90;87.30;;;;;;5063084;28;20290;-71
2022/09/25 09:35:07;;;;;;;2.77;0.30;;;15.10;86.40;;;;;;5057852;28;20290;-71
2022/09/25 09:37:57;;;;;;;5.83;0.40;;;15.40;83.70;;;;;;5059024;28;20295;-71
2022/09/25 09:40:28;;;;;;;2.90;0.20;;;15.70;81.30;;;;;;5045617;28;20351;-71
2022/09/25 09:43:31;;;;;;;3.10;0.30;;;16.00;82.10;;;;;;5062732;28;20738;-71
2022/09/25 09:46:31;;;;;;;1.50;0.20;;;16.20;82.70;;;;;;5046200;28;20375;-71
2022/09/25 09:48:57;;;;;;;2.73;0.20;;;16.30;80.30;;;;;;5045830;28;20305;-71
2022/09/25 09:51:35;;;;;;;4.07;0.50;;;16.10;78.30;;;;;;5062267;28;20270;-71
2022/09/25 09:54:35;;;;;;;4.37;0.20;;;15.90;78.70;;;;;;5061157;28;20048;-71
2022/09/25 09:57:09;;;;;;;4.97;0.63;;;15.70;75.40;;;;;;5057384;28;20340;-71
2022/09/25 09:59:45;;;;;;;4.77;0.50;;;15.50;76.20;;;;;;5047516;28;20333;-71
2022/09/25 10:02:40;;;;;;;3.73;0.40;;;15.50;76.40;;;;;;5064779;28;20275;-71
2022/09/25 10:05:29;;;;;;;3.63;0.43;;;15.50;75.20;;;;;;5044478;28;20290;-71
2022/09/25 10:07:55;;;;;;;4.20;0.67;;;15.50;75.50;;;;;;5062970;28;20131;-71
2022/09/25 10:10:34;;;;;;;3.10;0.47;;;15.50;76.20;;;;;;5047664;28;20431;-71
2022/09/25 10:13:05;;;;;;;1.43;0.37;;;15.40;74.50;;;;;;5064325;28;20040;-71
2022/09/25 10:15:37;;;;;;;1.33;0.30;;;15.20;74.70;;;;;;5065691;28;20354;-71
2022/09/25 10:18:03;;;;;;;4.20;0.47;;;15.20;76.80;;;;;;5062639;28;20275;-72
2022/09/25 10:20:52;;;;;;;3.23;0.50;;;15.20;76.80;;;;;;5052034;28;20279;-71
2022/09/25 10:23:46;;;;;;;3.23;0.40;;;15.20;75.50;;;;;;5039775;28;20298;-72
2022/09/25 10:26:35;;;;;;;0.70;0.17;;;15.20;74.60;;;;;;5039166;28;20348;-71
2022/09/25 10:29:21;;;;;;;2.90;0.47;;;15.30;73.70;;;;;;5064052;28;20287;-72
2022/09/25 10:31:55;;;;;;;4.23;0.27;;;15.50;75.40;;;;;;5050387;28;20294;-71
2022/09/25 10:34:22;;;;;;;2.50;0.40;;;15.80;74.90;;;;;;5044011;28;20504;-71
2022/09/25 10:36:53;;;;;;;1.90;0.10;;;15.90;72.90;;;;;;5061873;28;20298;-71
2022/09/25 10:39:33;;;;;;;2.30;0.47;;;16.00;70.20;;;;;;5065899;28;20279;-71
2022/09/25 10:42:01;;;;;;;2.57;0.13;;;16.20;72.50;;;;;;5066185;28;20286;-72
2022/09/25 10:44:33;;;;;;;1.50;0.20;;;16.30;73.00;;;;;;5052747;28;20283;-72
2022/09/25 10:50:25;;;;;;;1.83;0.30;;;16.70;70.60;;;;;;5062513;28;20321;-71
2022/09/25 10:52:57;;;;;;;3.13;0.30;;;16.70;71.90;;;;;;5060492;28;20769;-71
2022/09/25 10:55:27;;;;;;;3.13;0.30;;;16.50;71.10;;;;;;5080751;28;20290;-72
2022/09/25 10:58:15;;;;;;;2.67;0.20;;;16.40;71.00;;;;;;5058054;28;20310;-72
2022/09/25 11:00:53;;;;;;;2.83;0.30;;;16.20;69.20;;;;;;5048577;28;20289;-72
2022/09/25 11:03:31;;;;;;;3.13;0.30;;;16.10;71.60;;;;;;5065426;28;20314;-72
2022/09/25 11:06:28;;;;;;;1.77;0.10;;;16.10;71.90;;;;;;5063653;28;20293;-72
2022/09/25 11:09:16;;;;;;;3.93;0.33;;;16.00;71.60;;;;;;5045716;28;20353;-71
2022/09/25 11:11:44;;;;;;;3.27;0.20;;;15.90;73.10;;;;;;5060426;28;20290;-71
2022/09/25 11:14:44;;;;;;;1.37;0.20;;;15.80;73.10;;;;;;5048704;28;20305;-72
2022/09/25 11:17:38;;;;;;;1.20;0.23;;;15.70;72.40;;;;;;5054102;28;20821;-72
2022/09/25 11:20:16;;;;;;;1.70;0.30;;;15.70;71.60;;;;;;5065076;28;20286;-72
2022/09/25 11:23:12;;;;;;;2.63;0.20;;;15.70;71.60;;;;;;5061149;28;20286;-72
2022/09/25 11:25:52;;;;;;;;;;;15.70;70.50;;;;;;5066600;28;20302;-72
2022/09/25 11:28:48;;;;;;;2.97;0.40;;;15.70;68.50;;;;;;5069273;28;20414;-71
2022/09/25 11:31:16;;;;;;;1.23;0.40;;;15.60;71.00;;;;;;5052636;28;20297;-72
2022/09/25 11:33:48;;;;;;;3.30;0.20;;;15.60;70.90;;;;;;5069490;28;20501;-72
2022/09/25 11:36:37;;;;;;;2.07;0.23;;;15.60;70.80;;;;;;5068755;28;20336;-71
2022/09/25 11:42:00;;;;;;;4.80;0.60;;;15.90;68.60;;;;;;5072307;28;20319;-71
2022/09/25 11:44:31;;;;;;;3.20;0.30;;;16.10;68.80;;;;;;5083008;28;20290;-71
2022/09/25 11:47:04;;;;;;;1.90;0.20;;;16.10;69.60;;;;;;5062917;28;20278;-71
2022/09/25 11:49:33;;;;;;;2.57;0.23;;;16.30;68.70;;;;;;5061745;28;20287;-71
2022/09/25 11:52:38;;;;;;;3.43;0.40;;;16.30;68.10;;;;;;5077992;28;20696;-71
2022/09/25 11:55:26;;;;;;;1.98;0.15;;;16.40;65.50;;;;;;5049042;28;20294;-71
2022/09/25 11:58:16;;;;;;;1.67;0.50;;;16.50;68.30;;;;;;5069089;28;20385;-71
2022/09/25 12:00:59;;;;;;;3.00;0.20;;;16.70;68.20;;;;;;5070229;28;20370;-72
2022/09/25 12:03:46;;;;;;;2.47;0.20;;;16.70;69.00;;;;;;5071447;28;20631;-71
2022/09/25 12:06:53;;;;;;;2.13;0.30;;;16.50;64.80;;;;;;5045970;28;20291;-72
2022/09/25 12:09:44;;;;;;;2.87;0.10;;;16.30;65.10;;;;;;5079277;28;20302;-72
2022/09/25 12:12:23;;;;;;;1.67;0.40;;;16.10;67.10;;;;;;5068992;28;20281;-71
2022/09/25 12:15:11;;;;;;;2.53;0.30;;;15.90;67.20;;;;;;5050090;28;20283;-70
2022/09/25 12:17:55;;;;;;;2.57;0.20;;;15.80;67.80;;;;;;5054887;28;20285;-72
2022/09/25 12:20:38;;;;;;;4.47;0.93;;;15.70;67.90;;;;;;5073013;28;20279;-72
2022/09/25 12:23:27;;;;;;;3.00;0.33;;;15.80;68.90;;;;;;5051923;28;21050;-72
2022/09/25 12:26:11;;;;;;;4.03;0.30;;;15.80;68.20;;;;;;5066660;28;20825;-72
2022/09/25 12:28:53;;;;;;;2.10;0.20;;;15.80;68.80;;;;;;5070744;28;20338;-71
2022/09/25 12:31:38;;;;;;;3.93;0.60;;;15.80;67.90;;;;;;5057330;28;21123;-72
2022/09/25 12:34:25;;;;;;;5.53;1.20;;;15.60;67.10;;;;;;5053179;28;20306;-71
2022/09/25 12:37:26;;;;;;;5.27;0.73;;;15.50;68.80;;;;;;5065644;28;20064;-69
2022/09/25 12:40:10;;;;;;;7.33;1.07;;;15.60;67.40;;;;;;5068196;28;20277;-69
2022/09/25 12:42:55;;;;;;;1.47;0.23;;;15.70;68.20;;;;;;5054916;28;20311;-68
2022/09/25 12:45:49;;;;;;;3.50;0.20;;;15.90;66.90;;;;;;5060467;28;20854;-68
2022/09/25 12:48:33;;;;;;;2.70;0.10;;;16.10;66.30;;;;;;5059691;28;20295;-69
2022/09/25 12:51:34;;;;;;;1.67;0.10;;;16.10;67.30;;;;;;5066167;28;20286;-70
2022/09/25 12:54:22;;;;;;;1.23;0.20;;;16.30;64.80;;;;;;5037174;28;20311;-70
2022/09/25 12:56:58;;;;;;;2.97;0.27;;;16.30;59.80;;;;;;5067823;28;20278;-71
2022/09/25 12:59:37;;;;;;;2.27;0.10;;;16.20;62.00;;;;;;5051011;28;20705;-70
2022/09/25 13:02:18;;;;;;;2.13;0.10;;;16.30;62.80;;;;;;5066847;28;21124;-70
2022/09/25 13:05:09;;;;;;;3.33;0.20;;;16.40;64.00;;;;;;5078149;28;20273;-70
2022/09/25 13:07:45;;;;;;;1.93;0.10;;;16.50;62.40;;;;;;5047191;28;20698;-70
2022/09/25 13:10:29;;;;;;;2.77;0.10;;;16.70;63.10;;;;;;5072165;28;20405;-71
2022/09/25 13:12:59;;;;;;;2.20;0.45;;;16.70;61.30;;;;;;5067539;28;20299;-71
2022/09/25 13:15:31;;;;;;;3.13;0.47;;;16.70;62.20;;;;;;5048915;28;20029;-70
2022/09/25 13:17:58;;;;;;;1.93;0.40;;;16.70;60.90;;;;;;5083557;28;20333;-70
2022/09/25 13:20:30;;;;;;;2.83;0.23;;;16.80;61.80;;;;;;5069425;28;20794;-70
2022/09/25 13:23:07;;;;;;;2.07;0.37;;;16.90;62.50;;;;;;5067143;28;20847;-70
2022/09/25 13:25:43;;;;;;;2.87;0.20;;;17.20;61.10;;;;;;5047772;28;20378;-70
2022/09/25 13:28:20;;;;;;;2.20;0.20;;;17.20;59.10;;;;;;5074474;28;20283;-70
2022/09/25 13:31:03;;;;;;;2.20;0.30;;;17.00;59.90;;;;;;5049445;28;20278;-70
2022/09/25 13:33:42;;;;;;;2.43;0.20;;;17.00;61.70;;;;;;5067414;28;20326;-70
2022/09/25 13:36:22;;;;;;;2.73;0.10;;;16.80;61.10;;;;;;5051876;28;20278;-70
2022/09/25 13:42:03;;;;;;;2.50;0.20;;;16.60;63.40;;;;;;5061312;28;20302;-70
2022/09/25 13:45:09;;;;;;;2.33;0.20;;;16.90;63.90;;;;;;5065795;28;20279;-70
2022/09/25 13:47:48;;;;;;;3.53;0.10;;;17.10;60.10;;;;;;5063212;28;21009;-70
2022/09/25 13:50:49;;;;;;;0.97;0.13;;;17.20;60.00;;;;;;5055343;28;20033;-70